Time;durP1;ratioP1;P1;durP2;ratioP2;P2;SDS_P1;SDS_P2;PMS_P1;PMS_P2;Temp;Humidity;BMP_temperature;BMP_pressure;BME280_temperature;BME280_humidity;BME280_pressure;Samples;Min_cycle;Max_cycle;Signal;HPM_P1;HPM_P2
2023/04/22 00:02:07;;;;;;;8.48;7.35;;;11.90;99.90;;;;;;5037287;28;20041;-91
2023/04/22 00:04:33;;;;;;;11.00;8.07;;;11.90;99.90;;;;;;5022266;28;20042;-93
2023/04/22 00:06:59;;;;;;;9.65;8.65;;;11.80;99.90;;;;;;5023595;28;20037;-90
2023/04/22 00:09:25;;;;;;;12.23;8.88;;;11.80;99.90;;;;;;5019186;28;20045;-91
2023/04/22 00:11:51;;;;;;;11.27;9.00;;;11.80;99.90;;;;;;5023300;28;20075;-89
2023/04/22 00:14:17;;;;;;;11.48;9.10;;;11.80;99.90;;;;;;5023764;28;20120;-91
2023/04/22 00:16:42;;;;;;;10.48;8.93;;;11.70;99.90;;;;;;5022373;28;20075;-89
2023/04/22 00:19:08;;;;;;;12.57;9.43;;;11.60;99.90;;;;;;5038877;28;20404;-91
2023/04/22 00:21:34;;;;;;;11.23;9.27;;;11.50;99.90;;;;;;5018286;28;20072;-91
2023/04/22 00:24:00;;;;;;;8.80;7.90;;;11.30;99.90;;;;;;5016869;28;20348;-93
2023/04/22 00:26:25;;;;;;;10.27;8.88;;;11.10;99.90;;;;;;5018508;28;20045;-92
2023/04/22 00:28:51;;;;;;;10.55;9.45;;;11.10;99.90;;;;;;5037571;28;20555;-91
2023/04/22 00:31:16;;;;;;;11.52;10.43;;;11.10;99.90;;;;;;5021243;28;20258;-94
2023/04/22 00:33:42;;;;;;;9.25;8.25;;;11.00;99.90;;;;;;5031864;28;20038;-92
2023/04/22 00:36:08;;;;;;;12.52;8.30;;;10.90;99.90;;;;;;5036430;28;20099;-91
2023/04/22 00:38:33;;;;;;;10.98;9.30;;;10.80;99.90;;;;;;5038530;28;20033;-92
2023/04/22 00:40:59;;;;;;;10.85;9.70;;;10.80;99.90;;;;;;5022780;28;20057;-93
2023/04/22 00:43:25;;;;;;;11.55;9.50;;;10.70;99.90;;;;;;5020975;28;20054;-92
2023/04/22 00:45:56;;;;;;;10.48;9.27;;;10.60;99.90;;;;;;5037151;28;20049;-91
2023/04/22 00:48:23;;;;;;;11.55;9.43;;;10.50;99.90;;;;;;5019824;28;20044;-90
2023/04/22 00:50:49;;;;;;;15.32;11.40;;;10.50;99.90;;;;;;5021215;28;20044;-91
2023/04/22 00:53:14;;;;;;;11.10;9.85;;;10.50;99.90;;;;;;5038542;28;20033;-92
2023/04/22 00:55:40;;;;;;;11.05;9.95;;;10.50;99.90;;;;;;5021945;28;20057;-92
2023/04/22 00:58:06;;;;;;;11.57;9.82;;;10.40;99.90;;;;;;5021785;28;20420;-92
2023/04/22 01:00:33;;;;;;;12.70;11.00;;;10.30;99.90;;;;;;5023240;28;20041;-91
2023/04/22 01:02:59;;;;;;;12.18;10.77;;;10.30;99.90;;;;;;5035007;28;20072;-91
2023/04/22 01:05:27;;;;;;;13.13;11.48;;;10.20;99.90;;;;;;5037996;28;20198;-92
2023/04/22 01:07:53;;;;;;;13.50;10.38;;;10.20;99.90;;;;;;5044962;28;20047;-91
2023/04/22 01:10:19;;;;;;;11.57;10.38;;;10.10;99.90;;;;;;5038470;28;21308;-91
2023/04/22 01:12:45;;;;;;;11.15;9.88;;;10.10;99.90;;;;;;5020864;28;20049;-91
2023/04/22 01:15:11;;;;;;;10.52;9.43;;;10.00;99.90;;;;;;5040842;28;20069;-92
2023/04/22 01:17:37;;;;;;;12.13;9.77;;;10.00;99.90;;;;;;5027092;28;20502;-91
2023/04/22 01:20:04;;;;;;;10.57;9.50;;;10.00;99.90;;;;;;5021699;28;20080;-92
2023/04/22 01:22:35;;;;;;;9.77;8.75;;;10.00;99.90;;;;;;5023913;28;20072;-91
2023/04/22 01:25:02;;;;;;;10.43;9.43;;;10.00;99.90;;;;;;5020963;28;20504;-91
2023/04/22 01:27:29;;;;;;;10.75;9.65;;;10.10;99.90;;;;;;5024095;28;20037;-91
2023/04/22 01:29:55;;;;;;;11.40;8.25;;;10.10;99.90;;;;;;5020843;28;20041;-92
2023/04/22 01:32:21;;;;;;;10.93;9.82;;;10.00;99.90;;;;;;5019968;28;20047;-92
2023/04/22 01:34:47;;;;;;;12.23;10.30;;;10.10;99.90;;;;;;5016790;28;20037;-91
2023/04/22 01:37:12;;;;;;;13.70;12.10;;;10.10;99.90;;;;;;5037353;28;20052;-91
2023/04/22 01:39:38;;;;;;;14.05;12.55;;;10.20;99.90;;;;;;5033050;28;20055;-91
2023/04/22 01:42:04;;;;;;;17.90;12.50;;;10.20;99.90;;;;;;5036865;28;20103;-90
2023/04/22 01:44:30;;;;;;;18.08;12.55;;;10.20;99.90;;;;;;5021459;28;20575;-91
2023/04/22 01:46:55;;;;;;;16.10;11.65;;;10.10;99.90;;;;;;5019145;28;20183;-90
2023/04/22 01:49:21;;;;;;;16.23;13.48;;;10.00;99.90;;;;;;5020911;28;20120;-91
2023/04/22 01:51:47;;;;;;;13.23;11.80;;;10.00;99.90;;;;;;5018686;28;20482;-91
2023/04/22 01:54:13;;;;;;;15.45;12.63;;;9.90;99.90;;;;;;5034784;28;20236;-91
2023/04/22 01:56:40;;;;;;;16.27;12.18;;;9.80;99.90;;;;;;5042518;28;20060;-91
2023/04/22 01:59:06;;;;;;;13.55;12.10;;;9.80;99.90;;;;;;5018915;28;20401;-92
2023/04/22 02:01:32;;;;;;;15.63;12.70;;;9.80;99.90;;;;;;5034619;28;20036;-92
2023/04/22 02:03:58;;;;;;;15.55;11.82;;;9.80;99.90;;;;;;5020316;28;20045;-90
2023/04/22 02:06:23;;;;;;;15.00;12.90;;;9.70;99.90;;;;;;5018638;28;20045;-92
2023/04/22 02:08:49;;;;;;;16.20;14.07;;;9.70;99.90;;;;;;5017905;28;20439;-91
2023/04/22 02:11:15;;;;;;;14.82;13.23;;;9.70;99.90;;;;;;5021602;28;20069;-92
2023/04/22 02:13:41;;;;;;;14.52;12.27;;;9.80;99.90;;;;;;5021903;28;20088;-92
2023/04/22 02:16:07;;;;;;;15.77;12.57;;;9.70;99.90;;;;;;5031622;28;20136;-92
2023/04/22 02:18:33;;;;;;;15.18;12.77;;;9.70;99.90;;;;;;5033507;28;20374;-92
2023/04/22 02:20:58;;;;;;;16.02;14.00;;;9.60;99.90;;;;;;5022370;28;20109;-91
2023/04/22 02:23:25;;;;;;;16.52;14.63;;;9.60;99.90;;;;;;5020581;28;20599;-91
2023/04/22 02:25:51;;;;;;;18.25;15.35;;;9.70;99.90;;;;;;5022309;28;20214;-92
2023/04/22 02:28:18;;;;;;;16.92;14.80;;;9.70;99.90;;;;;;5020735;28;20453;-92
2023/04/22 02:30:45;;;;;;;17.75;15.68;;;9.70;99.90;;;;;;5041187;28;20534;-90
2023/04/22 02:33:10;;;;;;;14.60;13.07;;;9.70;99.90;;;;;;5017303;28;20115;-91
2023/04/22 02:35:36;;;;;;;13.95;12.52;;;9.70;99.90;;;;;;5021024;28;20041;-92
2023/04/22 02:38:02;;;;;;;13.07;11.68;;;9.60;99.90;;;;;;5035939;28;20079;-91
2023/04/22 02:40:27;;;;;;;13.15;11.32;;;9.60;99.90;;;;;;5034940;28;20540;-91
2023/04/22 02:42:53;;;;;;;13.48;10.95;;;9.50;99.90;;;;;;5017950;28;20147;-91
2023/04/22 02:45:21;;;;;;;11.95;10.73;;;9.50;99.90;;;;;;5020902;28;20043;-92
2023/04/22 02:47:47;;;;;;;13.57;11.80;;;9.30;99.90;;;;;;5019855;28;20040;-91
2023/04/22 02:50:13;;;;;;;16.20;14.50;;;9.40;99.90;;;;;;5035614;28;20037;-91
2023/04/22 02:52:38;;;;;;;18.00;13.57;;;9.30;99.90;;;;;;5017156;28;20041;-92
2023/04/22 02:55:05;;;;;;;16.60;14.70;;;9.30;99.90;;;;;;5021297;28;20069;-92
2023/04/22 02:57:31;;;;;;;17.48;14.65;;;9.20;99.90;;;;;;5023274;28;20393;-91
2023/04/22 02:59:56;;;;;;;18.63;15.07;;;9.10;99.90;;;;;;5036310;28;20257;-91
2023/04/22 03:02:25;;;;;;;17.10;14.55;;;9.10;99.90;;;;;;5020571;28;20106;-91
2023/04/22 03:04:53;;;;;;;16.08;13.48;;;9.00;99.90;;;;;;5017222;28;20086;-90
2023/04/22 03:07:18;;;;;;;17.25;13.25;;;8.90;99.90;;;;;;5015696;28;20040;-91
2023/04/22 03:09:44;;;;;;;15.32;13.40;;;8.90;99.90;;;;;;5031097;28;20037;-91
2023/04/22 03:12:10;;;;;;;16.65;13.27;;;8.90;99.90;;;;;;5021504;28;20095;-91
2023/04/22 03:14:36;;;;;;;16.35;13.23;;;8.90;99.90;;;;;;5020425;28;20061;-92
2023/04/22 03:17:01;;;;;;;17.85;13.48;;;8.80;99.90;;;;;;5037848;28;20131;-92
2023/04/22 03:19:27;;;;;;;18.27;14.13;;;8.70;99.90;;;;;;5019232;28;20076;-90
2023/04/22 03:21:53;;;;;;;16.73;14.18;;;8.70;99.90;;;;;;5014449;28;20392;-92
2023/04/22 03:24:18;;;;;;;20.15;14.75;;;8.70;99.90;;;;;;5035871;28;20476;-92
2023/04/22 03:26:44;;;;;;;15.05;13.45;;;8.60;99.90;;;;;;5037033;28;20040;-91
2023/04/22 03:29:09;;;;;;;16.92;13.75;;;8.60;99.90;;;;;;5022117;28;20061;-91
2023/04/22 03:31:38;;;;;;;17.17;13.27;;;8.50;99.90;;;;;;5039160;28;20033;-91
2023/04/22 03:34:05;;;;;;;17.60;14.38;;;8.50;99.90;;;;;;5022645;28;20491;-92
2023/04/22 03:36:33;;;;;;;17.25;14.82;;;8.50;99.90;;;;;;5023002;28;20040;-92
2023/04/22 03:38:59;;;;;;;17.02;14.10;;;8.60;99.90;;;;;;5023746;28;20491;-91
2023/04/22 03:41:25;;;;;;;19.23;15.48;;;8.50;99.90;;;;;;5021214;28;20501;-91
2023/04/22 03:43:51;;;;;;;20.95;17.17;;;8.60;99.90;;;;;;5044536;28;20543;-90
2023/04/22 03:46:17;;;;;;;20.55;17.13;;;8.60;99.90;;;;;;5026190;28;20041;-90
2023/04/22 03:48:42;;;;;;;20.80;15.95;;;8.50;99.90;;;;;;5027885;28;20124;-92
2023/04/22 03:51:08;;;;;;;18.42;14.27;;;8.50;99.90;;;;;;5019354;28;20038;-91
2023/04/22 03:53:34;;;;;;;17.48;15.48;;;8.50;99.90;;;;;;5024136;28;20051;-92
2023/04/22 03:55:59;;;;;;;23.02;17.25;;;8.50;99.90;;;;;;5038110;28;20107;-93
2023/04/22 03:58:25;;;;;;;19.33;15.70;;;8.50;99.90;;;;;;5019565;28;20544;-93
2023/04/22 04:00:51;;;;;;;16.95;14.57;;;8.40;99.90;;;;;;5021302;28;20337;-92
2023/04/22 04:03:16;;;;;;;17.27;15.48;;;8.40;99.90;;;;;;5040923;28;20253;-91
2023/04/22 04:05:42;;;;;;;19.15;15.68;;;8.40;99.90;;;;;;5039200;28;20055;-92
2023/04/22 04:08:07;;;;;;;17.17;14.75;;;8.30;99.90;;;;;;5038156;28;20043;-92
2023/04/22 04:10:33;;;;;;;17.38;15.48;;;8.30;99.90;;;;;;5019659;28;20025;-92
2023/04/22 04:12:59;;;;;;;20.17;15.95;;;8.30;99.90;;;;;;5024366;28;20353;-93
2023/04/22 04:15:24;;;;;;;18.83;15.82;;;8.30;99.90;;;;;;5020541;28;20127;-92
2023/04/22 04:17:51;;;;;;;18.80;14.73;;;8.30;99.90;;;;;;5017726;28;20593;-91
2023/04/22 04:20:19;;;;;;;16.95;13.95;;;8.30;99.90;;;;;;5040405;28;20125;-93
2023/04/22 04:22:45;;;;;;;16.27;13.85;;;8.30;99.90;;;;;;5028291;28;20048;-93
2023/04/22 04:25:11;;;;;;;21.25;14.90;;;8.20;99.90;;;;;;5024118;28;20037;-91
2023/04/22 04:27:38;;;;;;;16.83;14.43;;;8.20;99.90;;;;;;5025357;28;20045;-92
2023/04/22 04:30:05;;;;;;;17.70;14.10;;;8.30;99.90;;;;;;5021392;28;20457;-93
2023/04/22 04:32:34;;;;;;;16.05;13.75;;;8.30;99.90;;;;;;5023332;28;20033;-92
2023/04/22 04:35:01;;;;;;;17.05;14.80;;;8.20;99.90;;;;;;5038872;28;20400;-92
2023/04/22 04:37:26;;;;;;;17.05;14.05;;;8.20;99.90;;;;;;5041164;28;20125;-92
2023/04/22 04:39:52;;;;;;;17.73;14.02;;;8.20;99.90;;;;;;5024573;28;20128;-92
2023/04/22 04:42:19;;;;;;;17.95;14.68;;;8.20;99.90;;;;;;5023418;28;20048;-92
2023/04/22 04:44:47;;;;;;;18.92;14.27;;;8.30;99.90;;;;;;5026506;28;20040;-91
2023/04/22 04:47:13;;;;;;;17.10;14.82;;;8.30;99.90;;;;;;5019666;28;20049;-93
2023/04/22 04:49:39;;;;;;;18.60;14.48;;;8.30;99.90;;;;;;5036707;28;20045;-92
2023/04/22 04:52:08;;;;;;;21.80;17.05;;;8.30;99.90;;;;;;5040281;28;20050;-91
2023/04/22 04:54:34;;;;;;;21.15;17.55;;;8.40;99.90;;;;;;5021617;28;20041;-91
2023/04/22 04:57:00;;;;;;;22.58;18.08;;;8.40;99.90;;;;;;5025719;28;20037;-92
2023/04/22 04:59:29;;;;;;;22.13;17.48;;;8.50;99.90;;;;;;5040454;28;20102;-91
2023/04/22 05:01:55;;;;;;;22.50;17.95;;;8.50;99.90;;;;;;5021179;28;20049;-92
2023/04/22 05:04:20;;;;;;;21.33;16.55;;;8.50;99.90;;;;;;5037105;28;20124;-91
2023/04/22 05:06:46;;;;;;;23.30;17.95;;;8.50;99.90;;;;;;5026649;28;20103;-90
2023/04/22 05:09:12;;;;;;;23.92;17.95;;;8.60;99.90;;;;;;5035765;28;20049;-93
2023/04/22 05:11:38;;;;;;;22.08;18.92;;;8.70;99.90;;;;;;5019353;28;20159;-93
2023/04/22 05:14:04;;;;;;;21.73;17.45;;;8.70;99.90;;;;;;5021150;28;20092;-91
2023/04/22 05:16:30;;;;;;;22.98;17.38;;;8.70;99.90;;;;;;5024959;28;20036;-92
2023/04/22 05:18:56;;;;;;;25.30;17.40;;;8.70;99.90;;;;;;5020185;28;20044;-92
2023/04/22 05:21:21;;;;;;;22.80;18.70;;;8.70;99.90;;;;;;5024000;28;20037;-92
2023/04/22 05:23:47;;;;;;;22.35;18.85;;;8.80;99.90;;;;;;5036615;28;20673;-92
2023/04/22 05:26:13;;;;;;;22.67;18.02;;;8.80;99.90;;;;;;5039013;28;20389;-91
2023/04/22 05:28:39;;;;;;;21.70;18.30;;;8.90;99.90;;;;;;5038168;28;20551;-92
2023/04/22 05:31:05;;;;;;;20.02;17.48;;;8.90;99.90;;;;;;5034332;28;20137;-91
2023/04/22 05:33:31;;;;;;;22.95;18.35;;;9.00;99.90;;;;;;5035702;28;20112;-92
2023/04/22 05:35:57;;;;;;;23.92;19.00;;;9.10;99.90;;;;;;5028085;28;20120;-93
2023/04/22 05:38:25;;;;;;;24.45;19.52;;;9.20;99.90;;;;;;5036157;28;20583;-93
2023/04/22 05:40:51;;;;;;;22.27;18.75;;;9.30;99.90;;;;;;5035695;28;20566;-92
2023/04/22 05:43:16;;;;;;;22.00;18.50;;;9.40;99.90;;;;;;5018166;28;20531;-93
2023/04/22 05:45:42;;;;;;;19.95;17.00;;;9.50;99.90;;;;;;5022011;28;20118;-93
2023/04/22 05:48:08;;;;;;;19.85;17.35;;;9.60;99.90;;;;;;5037105;28;20044;-91
2023/04/22 05:50:33;;;;;;;23.85;18.30;;;9.70;99.90;;;;;;5018617;28;20099;-93
2023/04/22 05:52:59;;;;;;;19.92;16.75;;;9.80;99.90;;;;;;5053588;28;20041;-92
2023/04/22 05:55:24;;;;;;;20.20;16.20;;;9.80;99.90;;;;;;5034880;28;20041;-93
2023/04/22 05:57:53;;;;;;;18.98;16.45;;;10.00;99.90;;;;;;5018853;28;20095;-92
2023/04/22 06:00:19;;;;;;;19.00;15.65;;;10.10;99.90;;;;;;5035301;28;20282;-94
2023/04/22 06:02:44;;;;;;;18.35;15.73;;;10.20;99.90;;;;;;5020491;28;20036;-92
2023/04/22 06:05:10;;;;;;;19.25;16.08;;;10.30;99.90;;;;;;5019121;28;20037;-92
2023/04/22 06:07:36;;;;;;;19.00;15.13;;;10.40;99.90;;;;;;5037563;28;20143;-91
2023/04/22 06:10:02;;;;;;;19.27;15.68;;;10.40;99.90;;;;;;5034152;28;20122;-91
2023/04/22 06:12:27;;;;;;;17.40;15.10;;;10.50;99.90;;;;;;5018232;28;20036;-91
2023/04/22 06:14:53;;;;;;;19.25;15.45;;;10.60;99.90;;;;;;5017377;28;20041;-91
2023/04/22 06:17:21;;;;;;;16.88;15.07;;;10.70;99.90;;;;;;5034043;28;20037;-93
2023/04/22 06:19:47;;;;;;;19.75;15.23;;;10.80;99.90;;;;;;5024733;28;20321;-93
2023/04/22 06:22:12;;;;;;;17.90;15.55;;;10.90;99.90;;;;;;5035276;28;20048;-92
2023/04/22 06:24:38;;;;;;;18.35;14.45;;;11.00;99.90;;;;;;5021935;28;20050;-92
2023/04/22 06:27:04;;;;;;;16.48;13.60;;;11.10;99.90;;;;;;5019525;28;20120;-93
2023/04/22 06:29:29;;;;;;;15.25;13.60;;;11.10;99.90;;;;;;5035539;28;20048;-93
2023/04/22 06:31:55;;;;;;;16.63;14.80;;;11.30;99.90;;;;;;5036704;28;20041;-92
2023/04/22 06:34:21;;;;;;;16.02;13.82;;;11.40;99.90;;;;;;5035134;28;20069;-92
2023/04/22 06:36:50;;;;;;;16.77;13.60;;;11.40;99.90;;;;;;5016391;28;20049;-92
2023/04/22 06:39:16;;;;;;;15.10;12.80;;;11.50;99.90;;;;;;5024009;28;20037;-91
2023/04/22 06:41:43;;;;;;;15.70;13.43;;;11.60;99.90;;;;;;5037601;28;20041;-92
2023/04/22 06:44:08;;;;;;;15.07;13.48;;;11.70;99.90;;;;;;5033608;28;20132;-93
2023/04/22 06:46:35;;;;;;;15.52;13.77;;;11.70;99.90;;;;;;5020813;28;20144;-93
2023/04/22 06:49:00;;;;;;;16.17;13.00;;;11.90;99.90;;;;;;5018499;28;20490;-92
2023/04/22 06:51:26;;;;;;;14.60;12.48;;;12.00;99.90;;;;;;5033677;28;20131;-94
2023/04/22 06:53:51;;;;;;;14.32;12.48;;;12.00;99.90;;;;;;5036069;28;20045;-93
2023/04/22 06:56:17;;;;;;;16.27;13.30;;;12.10;99.90;;;;;;5035643;28;20049;-93
2023/04/22 06:58:46;;;;;;;15.45;13.38;;;12.30;99.90;;;;;;5035333;28;20301;-93
2023/04/22 07:01:12;;;;;;;15.35;13.23;;;12.30;99.90;;;;;;5021521;28;20488;-94
2023/04/22 07:03:37;;;;;;;14.82;12.57;;;12.40;99.90;;;;;;5019089;28;20048;-93
2023/04/22 07:06:04;;;;;;;16.63;13.48;;;12.50;99.90;;;;;;5020929;28;20359;-93
2023/04/22 07:08:29;;;;;;;15.63;13.15;;;12.40;99.90;;;;;;5020388;28;20100;-93
2023/04/22 07:10:58;;;;;;;15.15;12.77;;;12.60;99.90;;;;;;5023840;28;20190;-93
2023/04/22 07:13:25;;;;;;;16.17;12.95;;;12.70;99.90;;;;;;5018283;28;21341;-92
2023/04/22 07:15:51;;;;;;;14.25;12.75;;;12.70;99.90;;;;;;5023117;28;20048;-92
2023/04/22 07:18:18;;;;;;;15.20;12.65;;;12.90;99.90;;;;;;5035478;28;20068;-93
2023/04/22 07:20:43;;;;;;;15.00;12.38;;;12.80;99.90;;;;;;5020737;28;20138;-95
2023/04/22 07:23:09;;;;;;;14.55;12.52;;;13.00;99.90;;;;;;5036739;28;20044;-93
2023/04/22 07:25:38;;;;;;;14.23;12.27;;;13.10;99.90;;;;;;5037864;28;20472;-93
2023/04/22 07:28:03;;;;;;;14.82;12.52;;;13.20;99.90;;;;;;5020028;28;20363;-94
2023/04/22 07:30:29;;;;;;;14.73;12.20;;;13.30;99.90;;;;;;5020229;28;20041;-93
2023/04/22 07:32:55;;;;;;;14.20;12.15;;;13.50;99.90;;;;;;5021591;28;20048;-94
2023/04/22 07:35:20;;;;;;;14.27;12.27;;;13.60;99.90;;;;;;5036904;28;20041;-94
2023/04/22 07:37:46;;;;;;;16.35;12.25;;;13.60;99.90;;;;;;5019776;28;20511;-94
2023/04/22 07:40:12;;;;;;;14.38;12.60;;;13.60;99.90;;;;;;5020882;28;20416;-93
2023/04/22 07:42:42;;;;;;;13.90;12.50;;;13.80;99.90;;;;;;5018715;28;20147;-93
2023/04/22 07:45:08;;;;;;;13.70;11.98;;;14.00;99.90;;;;;;5037256;28;20053;-94
2023/04/22 07:47:33;;;;;;;13.23;11.90;;;14.10;99.90;;;;;;5015742;28;20041;-93
2023/04/22 07:49:59;;;;;;;13.45;11.95;;;14.20;99.90;;;;;;5033356;28;20098;-94
2023/04/22 07:52:25;;;;;;;13.10;11.80;;;14.40;99.90;;;;;;5019131;28;20083;-94
2023/04/22 07:54:51;;;;;;;13.30;11.98;;;14.40;99.90;;;;;;5017894;28;20072;-93
2023/04/22 07:57:20;;;;;;;15.27;12.27;;;14.70;99.90;;;;;;5033992;28;20180;-94
2023/04/22 07:59:48;;;;;;;12.93;10.63;;;14.90;99.90;;;;;;5029760;28;20045;-94
2023/04/22 08:02:14;;;;;;;12.82;11.13;;;14.90;99.90;;;;;;5021709;28;20051;-94
2023/04/22 08:04:40;;;;;;;13.05;11.45;;;15.00;99.90;;;;;;5020560;28;20041;-93
2023/04/22 08:07:06;;;;;;;11.35;10.25;;;15.10;99.90;;;;;;5018722;28;20068;-92
2023/04/22 08:09:31;;;;;;;13.13;10.65;;;15.10;99.90;;;;;;5021754;28;20578;-91
2023/04/22 08:11:57;;;;;;;12.77;10.35;;;15.40;99.90;;;;;;5018015;28;20067;-93
2023/04/22 08:14:23;;;;;;;12.10;9.88;;;15.40;99.90;;;;;;5017795;28;20053;-92
2023/04/22 08:16:53;;;;;;;11.30;10.07;;;15.50;99.90;;;;;;5041697;28;20095;-92
2023/04/22 08:19:19;;;;;;;12.60;10.85;;;15.70;99.90;;;;;;5041858;28;20049;-91
2023/04/22 08:21:47;;;;;;;11.88;10.65;;;15.70;99.90;;;;;;5025402;28;20184;-93
2023/04/22 08:24:15;;;;;;;11.60;10.38;;;15.80;99.90;;;;;;5029913;28;20041;-93
2023/04/22 08:26:41;;;;;;;13.05;10.98;;;15.90;99.90;;;;;;5040785;28;20487;-93
2023/04/22 08:29:06;;;;;;;12.98;10.60;;;16.00;99.90;;;;;;5024608;28;20052;-92
2023/04/22 08:31:33;;;;;;;12.65;10.35;;;16.00;99.90;;;;;;5024818;28;20037;-92
2023/04/22 08:33:59;;;;;;;12.90;10.60;;;16.10;99.90;;;;;;5025757;28;20130;-93
2023/04/22 08:36:27;;;;;;;12.32;11.10;;;16.30;99.90;;;;;;5038629;28;20037;-93
2023/04/22 08:38:56;;;;;;;12.18;10.88;;;16.10;99.90;;;;;;5041883;28;20040;-93
2023/04/22 08:41:25;;;;;;;12.68;11.38;;;16.30;99.90;;;;;;5017986;28;20486;-93
2023/04/22 08:43:52;;;;;;;12.45;10.77;;;16.40;99.90;;;;;;5041508;28;20045;-92
2023/04/22 08:46:24;;;;;;;11.63;10.43;;;16.80;99.90;;;;;;5021436;28;20132;-92
2023/04/22 08:48:50;;;;;;;11.77;10.60;;;17.00;99.90;;;;;;5018780;28;20108;-92
2023/04/22 08:51:17;;;;;;;11.38;10.27;;;17.10;99.90;;;;;;5024298;28;20040;-93
2023/04/22 08:53:43;;;;;;;11.05;9.80;;;17.20;99.90;;;;;;5022608;28;20055;-92
2023/04/22 08:56:11;;;;;;;12.60;10.15;;;17.50;99.90;;;;;;5021095;28;20033;-93
2023/04/22 08:58:39;;;;;;;9.27;8.38;;;17.40;99.90;;;;;;5021243;28;20075;-93
2023/04/22 09:01:06;;;;;;;10.40;9.05;;;17.40;99.90;;;;;;5021041;28;20040;-91
2023/04/22 09:03:34;;;;;;;10.23;9.15;;;17.60;99.90;;;;;;5040078;28;20345;-92
2023/04/22 09:06:03;;;;;;;10.05;9.05;;;17.70;99.90;;;;;;5022430;28;20146;-93
2023/04/22 09:08:29;;;;;;;9.05;8.15;;;17.70;99.90;;;;;;5043933;28;20120;-92
2023/04/22 09:10:58;;;;;;;10.30;9.07;;;17.70;99.90;;;;;;5020875;28;20043;-93
2023/04/22 09:13:25;;;;;;;9.35;8.40;;;17.70;99.90;;;;;;5022340;28;20068;-92
2023/04/22 09:15:51;;;;;;;9.95;8.93;;;17.70;99.90;;;;;;5033640;28;20128;-91
2023/04/22 09:18:18;;;;;;;10.20;9.20;;;17.60;99.90;;;;;;5021721;28;20117;-93
2023/04/22 09:20:46;;;;;;;9.90;8.73;;;17.60;99.90;;;;;;5021753;28;20452;-92
2023/04/22 09:23:12;;;;;;;10.43;9.10;;;18.00;99.90;;;;;;5039661;28;20043;-94
2023/04/22 09:25:39;;;;;;;9.30;8.32;;;17.90;99.90;;;;;;5036379;28;20485;-92
2023/04/22 09:28:09;;;;;;;9.85;8.32;;;18.00;99.90;;;;;;5021720;28;20127;-92
2023/04/22 09:30:36;;;;;;;10.63;8.52;;;18.10;99.90;;;;;;5021821;28;20607;-91
2023/04/22 09:33:06;;;;;;;9.65;8.30;;;18.30;99.90;;;;;;5036877;28;20190;-92
2023/04/22 09:35:39;;;;;;;10.85;9.48;;;18.40;99.90;;;;;;5038534;28;20068;-92
2023/04/22 09:38:10;;;;;;;9.98;8.27;;;18.60;99.90;;;;;;5018819;28;20044;-92
2023/04/22 09:40:39;;;;;;;9.00;7.80;;;18.40;99.90;;;;;;5026578;28;20060;-91
2023/04/22 09:43:08;;;;;;;9.93;7.93;;;18.50;99.90;;;;;;5021631;28;20037;-91
2023/04/22 09:45:42;;;;;;;9.48;8.48;;;18.70;99.90;;;;;;5016641;28;20195;-91
2023/04/22 09:48:10;;;;;;;10.10;8.55;;;18.70;1.00;;;;;;5024206;28;20536;-91
2023/04/22 09:50:37;;;;;;;8.63;7.53;;;18.50;21.50;;;;;;5039472;28;20048;-91
2023/04/22 09:53:08;;;;;;;8.68;7.50;;;18.70;99.90;;;;;;5036661;28;20040;-91
2023/04/22 09:55:37;;;;;;;8.73;7.82;;;19.00;45.30;;;;;;5040076;28;20044;-90
2023/04/22 09:58:09;;;;;;;9.55;8.50;;;19.10;99.90;;;;;;5041013;28;20041;-92
2023/04/22 10:00:39;;;;;;;8.80;7.90;;;19.30;99.90;;;;;;5014362;28;20056;-90
2023/04/22 10:03:05;;;;;;;8.80;7.90;;;19.60;1.00;;;;;;5035976;28;20048;-93
2023/04/22 10:05:36;;;;;;;8.38;7.55;;;19.70;99.90;;;;;;5022446;28;20033;-90
2023/04/22 10:08:04;;;;;;;9.85;7.47;;;19.70;20.70;;;;;;5036782;28;20045;-92
2023/04/22 10:10:30;;;;;;;7.70;7.00;;;19.80;25.00;;;;;;5021648;28;20445;-91
2023/04/22 10:12:56;;;;;;;7.93;7.13;;;19.70;99.90;;;;;;5019082;28;20041;-91
2023/04/22 10:15:24;;;;;;;7.53;6.72;;;19.60;99.90;;;;;;5022889;28;20106;-91
2023/04/22 10:17:54;;;;;;;10.48;6.80;;;19.30;99.90;;;;;;5020369;28;20116;-91
2023/04/22 10:20:21;;;;;;;9.32;7.93;;;19.60;99.90;;;;;;5040442;28;20157;-92
2023/04/22 10:22:47;;;;;;;6.88;6.18;;;19.90;99.90;;;;;;5041047;28;20049;-91
2023/04/22 10:25:24;;;;;;;8.32;6.57;;;20.00;98.80;;;;;;5018262;28;20047;-91
2023/04/22 10:28:10;;;;;;;9.63;6.35;;;20.30;99.90;;;;;;5023647;28;20045;-90
2023/04/22 10:30:42;;;;;;;7.63;6.50;;;20.00;99.90;;;;;;5024474;28;20049;-90
2023/04/22 10:33:20;;;;;;;8.27;6.78;;;20.50;89.10;;;;;;5020178;28;20029;-90
2023/04/22 10:36:13;;;;;;;7.65;6.78;;;20.80;1.00;;;;;;5037046;28;20135;-90
2023/04/22 10:38:54;;;;;;;9.10;7.80;;;20.50;99.90;;;;;;5037279;28;20483;-89
2023/04/22 10:41:24;;;;;;;7.85;7.15;;;20.90;99.90;;;;;;5033779;28;20041;-90
2023/04/22 10:43:58;;;;;;;7.50;6.72;;;20.70;22.60;;;;;;5036723;28;20075;-90
2023/04/22 10:46:36;;;;;;;7.10;6.40;;;20.90;99.90;;;;;;5015244;28;20057;-90
2023/04/22 10:49:22;;;;;;;8.55;7.13;;;21.30;1.00;;;;;;5017941;28;20335;-90
2023/04/22 10:51:57;;;;;;;7.70;6.80;;;21.50;1.00;;;;;;5019736;28;20041;-90
2023/04/22 10:54:26;;;;;;;7.45;6.57;;;21.50;99.90;;;;;;5022607;28;20095;-92
2023/04/22 10:57:08;;;;;;;8.00;7.20;;;21.80;99.90;;;;;;5034290;28;20350;-91
2023/04/22 10:59:56;;;;;;;8.68;6.95;;;21.60;96.40;;;;;;5023178;28;20044;-92
2023/04/22 11:02:23;;;;;;;7.93;6.93;;;21.60;1.00;;;;;;5035979;28;20043;-91
2023/04/22 11:04:53;;;;;;;8.23;7.35;;;21.30;1.00;;;;;;5018984;28;20044;-91
2023/04/22 11:07:25;;;;;;;7.65;6.72;;;21.40;99.90;;;;;;5039286;28;20187;-91
2023/04/22 11:10:14;;;;;;;7.88;7.13;;;21.50;99.90;;;;;;5014459;28;20038;-90
2023/04/22 11:12:41;;;;;;;7.85;6.97;;;21.80;99.90;;;;;;5035045;28;20120;-91
2023/04/22 11:15:17;;;;;;;7.45;6.72;;;21.70;99.90;;;;;;5035631;28;20060;-91
2023/04/22 11:17:50;;;;;;;8.50;6.45;;;22.10;99.90;;;;;;5033074;28;20161;-91
2023/04/22 11:20:19;;;;;;;8.63;6.43;;;21.70;99.90;;;;;;5016042;28;20065;-90
2023/04/22 11:22:50;;;;;;;7.43;6.60;;;22.10;90.50;;;;;;5016539;28;20189;-91
2023/04/22 11:25:16;;;;;;;6.82;6.13;;;22.10;99.90;;;;;;5034654;28;20029;-90
2023/04/22 11:27:45;;;;;;;7.80;6.95;;;21.80;99.90;;;;;;5034881;28;20057;-91
2023/04/22 11:30:17;;;;;;;7.68;6.60;;;22.40;99.90;;;;;;5019975;28;20045;-91
2023/04/22 11:32:43;;;;;;;11.05;6.43;;;22.50;99.90;;;;;;5018225;28;20037;-90
2023/04/22 11:35:17;;;;;;;6.50;5.90;;;22.30;99.90;;;;;;5039063;28;20481;-91
2023/04/22 11:37:49;;;;;;;7.47;5.40;;;22.70;99.90;;;;;;5021324;28;20045;-90
2023/04/22 11:40:24;;;;;;;7.03;5.78;;;22.40;99.90;;;;;;5017151;28;20088;-90
2023/04/22 11:42:50;;;;;;;6.85;5.00;;;22.80;1.00;;;;;;5017483;28;20045;-91
2023/04/22 11:45:16;;;;;;;6.68;5.53;;;23.20;1.00;;;;;;5018919;28;20036;-90
2023/04/22 11:47:43;;;;;;;7.30;5.10;;;23.20;1.00;;;;;;5035935;28;20041;-90
2023/04/22 11:50:11;;;;;;;5.78;4.90;;;22.50;99.90;;;;;;5018894;28;20083;-89
2023/04/22 11:52:49;;;;;;;6.18;4.90;;;22.70;99.90;;;;;;5023981;28;20047;-90
2023/04/22 11:55:28;;;;;;;5.63;4.90;;;22.80;99.90;;;;;;5037526;28;20060;-90
2023/04/22 11:58:00;;;;;;;5.68;4.70;;;23.20;99.90;;;;;;5037923;28;20037;-90
2023/04/22 12:00:42;;;;;;;7.85;4.70;;;23.60;1.00;;;;;;5038591;28;20037;-90
2023/04/22 12:03:15;;;;;;;4.95;4.43;;;23.70;99.90;;;;;;5038487;28;20696;-91
2023/04/22 12:05:45;;;;;;;6.88;5.40;;;23.50;99.90;;;;;;5021438;28;20048;-89
2023/04/22 12:08:13;;;;;;;6.68;4.97;;;23.40;99.90;;;;;;5037452;28;20080;-89
2023/04/22 12:10:46;;;;;;;6.72;5.65;;;23.60;99.90;;;;;;5018242;28;20047;-90
2023/04/22 12:13:28;;;;;;;6.25;5.65;;;23.50;99.90;;;;;;5021409;28;20136;-91
2023/04/22 12:16:08;;;;;;;6.72;6.03;;;23.10;99.90;;;;;;5024736;28;20057;-90
2023/04/22 12:18:36;;;;;;;7.18;5.63;;;22.90;99.90;;;;;;5018547;28;20037;-89
2023/04/22 12:21:12;;;;;;;8.07;6.10;;;22.70;99.90;;;;;;5039373;28;20037;-90
2023/04/22 12:23:57;;;;;;;7.45;6.68;;;22.50;99.90;;;;;;5036967;28;20041;-89
2023/04/22 12:26:27;;;;;;;7.47;5.95;;;21.90;99.90;;;;;;5021151;28;20068;-90
2023/04/22 12:28:54;;;;;;;6.95;6.25;;;21.60;99.90;;;;;;5038750;28;20710;-90
2023/04/22 12:31:20;;;;;;;7.22;6.35;;;21.30;99.90;;;;;;5037414;28;20518;-89
2023/04/22 12:33:46;;;;;;;7.03;5.93;;;21.30;99.90;;;;;;5033146;28;20037;-91
2023/04/22 12:36:12;;;;;;;6.82;5.60;;;21.40;99.90;;;;;;5039927;28;20041;-91
2023/04/22 12:38:38;;;;;;;6.03;5.30;;;21.90;99.90;;;;;;5019198;28;20538;-89
2023/04/22 12:41:05;;;;;;;6.40;5.80;;;22.20;99.90;;;;;;5016889;28;20045;-90